VJC431 VVNB-VVPC
Flight info
| Callsign | VJC431 |
|---|---|
| Flight time | 1h 15m |
| Altitude | 34000 |
| Route | NAH3A NAH Q1 DAN W2 KUMUN KUMUN1D |
| Aircraft | A21N/M-SDE2E3FGHIRWXY/LB1 |
Departure
| Time | 2026-05-05 16:38 |
|---|---|
| Airport | Noi Bai International Airport (VVNB) |
Arrival
| Time | 2026-05-05 17:53 |
|---|---|
| Airport | Phu Cat Airport (VVPC) |
| Time | Latitude | Longitude | Altitude | Speed | Heading |
|---|---|---|---|---|---|
| 2026-05-05 16:03 | 21.21675 | 105.80224 | 49 ft | 0 kts | 197° |
| 2026-05-05 16:33 | 21.21673 | 105.80223 | 54 ft | 2 kts | 197° |
| 2026-05-05 16:33 | 21.21653 | 105.80210 | 54 ft | 6 kts | 237° |
| 2026-05-05 16:33 | 21.21654 | 105.80155 | 53 ft | 10 kts | 284° |
| 2026-05-05 16:33 | 21.21692 | 105.80088 | 54 ft | 13 kts | 354° |
| 2026-05-05 16:34 | 21.21783 | 105.80083 | 54 ft | 14 kts | 313° |
| 2026-05-05 16:34 | 21.21819 | 105.79980 | 54 ft | 16 kts | 311° |
| 2026-05-05 16:34 | 21.21919 | 105.79950 | 54 ft | 17 kts | 293° |
| 2026-05-05 16:34 | 21.21953 | 105.79826 | 50 ft | 18 kts | 287° |
| 2026-05-05 16:35 | 21.21991 | 105.79695 | 54 ft | 19 kts | 287° |
| 2026-05-05 16:35 | 21.22031 | 105.79554 | 54 ft | 20 kts | 287° |
| 2026-05-05 16:35 | 21.22074 | 105.79407 | 54 ft | 21 kts | 287° |
| 2026-05-05 16:35 | 21.22119 | 105.79251 | 55 ft | 22 kts | 287° |
| 2026-05-05 16:36 | 21.22166 | 105.79089 | 55 ft | 23 kts | 287° |
| 2026-05-05 16:36 | 21.22216 | 105.78918 | 55 ft | 25 kts | 287° |
| 2026-05-05 16:36 | 21.22267 | 105.78740 | 55 ft | 26 kts | 287° |
| 2026-05-05 16:36 | 21.22315 | 105.78609 | 55 ft | 10 kts | 345° |
| 2026-05-05 16:37 | 21.22390 | 105.78619 | 56 ft | 12 kts | 19° |
| 2026-05-05 16:37 | 21.22457 | 105.78673 | 54 ft | 14 kts | 88° |
| 2026-05-05 16:37 | 21.22418 | 105.78812 | 56 ft | 41 kts | 107° |
| 2026-05-05 16:37 | 21.22256 | 105.79372 | 55 ft | 113 kts | 106° |
| 2026-05-05 16:38 | 21.21963 | 105.80384 | 52 ft | 167 kts | 107° |
| 2026-05-05 16:38 | 21.21634 | 105.81577 | 576 ft | 165 kts | 108° |
| 2026-05-05 16:38 | 21.21309 | 105.82761 | 1142 ft | 167 kts | 109° |
| 2026-05-05 16:38 | 21.20967 | 105.83972 | 1716 ft | 172 kts | 111° |
| 2026-05-05 16:39 | 21.20612 | 105.85260 | 2129 ft | 187 kts | 111° |
| 2026-05-05 16:39 | 21.20232 | 105.86626 | 2592 ft | 200 kts | 111° |
| 2026-05-05 16:39 | 21.19819 | 105.88104 | 3110 ft | 214 kts | 110° |
| 2026-05-05 16:39 | 21.19369 | 105.89715 | 3482 ft | 237 kts | 110° |
| 2026-05-05 16:40 | 21.18874 | 105.91493 | 3962 ft | 256 kts | 109° |
| 2026-05-05 16:40 | 21.18359 | 105.93347 | 4612 ft | 266 kts | 109° |
| 2026-05-05 16:40 | 21.17826 | 105.95271 | 5333 ft | 271 kts | 109° |
| 2026-05-05 16:40 | 21.17212 | 105.97196 | 5998 ft | 278 kts | 118° |
| 2026-05-05 16:41 | 21.16026 | 105.98839 | 6557 ft | 282 kts | 144° |
| 2026-05-05 16:41 | 21.14269 | 105.99745 | 7222 ft | 281 kts | 169° |
| 2026-05-05 16:41 | 21.12334 | 106.00068 | 7956 ft | 282 kts | 175° |
| 2026-05-05 16:41 | 21.10367 | 106.00310 | 8663 ft | 286 kts | 175° |
| 2026-05-05 16:42 | 21.08408 | 106.00565 | 9353 ft | 289 kts | 175° |
| 2026-05-05 16:42 | 21.06398 | 106.00846 | 10025 ft | 293 kts | 175° |
| 2026-05-05 16:42 | 21.04304 | 106.01150 | 10392 ft | 308 kts | 174° |
| 2026-05-05 16:42 | 21.02141 | 106.01472 | 10637 ft | 326 kts | 174° |
| 2026-05-05 16:43 | 20.99833 | 106.01820 | 10868 ft | 344 kts | 174° |
| 2026-05-05 16:43 | 20.97393 | 106.02190 | 11155 ft | 358 kts | 174° |
| 2026-05-05 16:43 | 20.94893 | 106.02572 | 11676 ft | 364 kts | 174° |
| 2026-05-05 16:43 | 20.92417 | 106.02954 | 12260 ft | 368 kts | 174° |
| 2026-05-05 16:44 | 20.89875 | 106.03356 | 12874 ft | 371 kts | 174° |
| 2026-05-05 16:44 | 20.87299 | 106.03755 | 13492 ft | 374 kts | 175° |
| 2026-05-05 16:44 | 20.84713 | 106.04149 | 14052 ft | 378 kts | 175° |
| 2026-05-05 16:44 | 20.82096 | 106.04541 | 14580 ft | 381 kts | 175° |
| 2026-05-05 16:45 | 20.79457 | 106.04945 | 15109 ft | 384 kts | 174° |
| 2026-05-05 16:45 | 20.76798 | 106.05349 | 15636 ft | 387 kts | 174° |
| 2026-05-05 16:45 | 20.74113 | 106.05758 | 16157 ft | 391 kts | 174° |
| 2026-05-05 16:45 | 20.71407 | 106.06168 | 16677 ft | 394 kts | 174° |
| 2026-05-05 16:46 | 20.68720 | 106.06574 | 17191 ft | 396 kts | 174° |
| 2026-05-05 16:46 | 20.65981 | 106.06989 | 17737 ft | 398 kts | 174° |
| 2026-05-05 16:46 | 20.63233 | 106.07405 | 18250 ft | 400 kts | 174° |
| 2026-05-05 16:46 | 20.60454 | 106.07828 | 18673 ft | 403 kts | 174° |
| 2026-05-05 16:47 | 20.57669 | 106.08263 | 19091 ft | 406 kts | 173° |
| 2026-05-05 16:47 | 20.54871 | 106.08768 | 19505 ft | 409 kts | 172° |
| 2026-05-05 16:47 | 20.52054 | 106.09288 | 19914 ft | 412 kts | 172° |
| 2026-05-05 16:47 | 20.49209 | 106.09817 | 20317 ft | 415 kts | 172° |
| 2026-05-05 16:48 | 20.46394 | 106.10340 | 20713 ft | 418 kts | 172° |
| 2026-05-05 16:48 | 20.43511 | 106.10873 | 21113 ft | 421 kts | 172° |
| 2026-05-05 16:48 | 20.40615 | 106.11413 | 21507 ft | 424 kts | 172° |
| 2026-05-05 16:48 | 20.37749 | 106.12254 | 21873 ft | 430 kts | 161° |
| 2026-05-05 16:49 | 20.34997 | 106.13547 | 22285 ft | 433 kts | 157° |
| 2026-05-05 16:49 | 20.32269 | 106.14929 | 22678 ft | 436 kts | 157° |
| 2026-05-05 16:49 | 20.29514 | 106.16333 | 23058 ft | 439 kts | 157° |
| 2026-05-05 16:49 | 20.26750 | 106.17735 | 23425 ft | 441 kts | 157° |
| 2026-05-05 16:50 | 20.23962 | 106.19133 | 23739 ft | 444 kts | 158° |
| 2026-05-05 16:50 | 20.21155 | 106.20534 | 24047 ft | 446 kts | 158° |
| 2026-05-05 16:50 | 20.18370 | 106.21929 | 24352 ft | 448 kts | 157° |
| 2026-05-05 16:50 | 20.15528 | 106.23349 | 24659 ft | 451 kts | 158° |
| 2026-05-05 16:51 | 20.12676 | 106.24770 | 24966 ft | 453 kts | 158° |
| 2026-05-05 16:51 | 20.09810 | 106.26200 | 25264 ft | 455 kts | 157° |
| 2026-05-05 16:51 | 20.06936 | 106.27630 | 25561 ft | 458 kts | 158° |
| 2026-05-05 16:51 | 20.04032 | 106.29075 | 25853 ft | 460 kts | 157° |
| 2026-05-05 16:52 | 20.01165 | 106.30507 | 26155 ft | 462 kts | 157° |
| 2026-05-05 16:52 | 19.98250 | 106.31964 | 26449 ft | 464 kts | 157° |
| 2026-05-05 16:52 | 19.95318 | 106.33421 | 26732 ft | 466 kts | 157° |
| 2026-05-05 16:52 | 19.92365 | 106.34887 | 27009 ft | 468 kts | 157° |
| 2026-05-05 16:53 | 19.89402 | 106.36361 | 27315 ft | 470 kts | 157° |
| 2026-05-05 16:53 | 19.86473 | 106.37815 | 27592 ft | 472 kts | 157° |
| 2026-05-05 16:53 | 19.83492 | 106.39299 | 27855 ft | 474 kts | 157° |
| 2026-05-05 16:53 | 19.80488 | 106.40796 | 28121 ft | 476 kts | 157° |
| 2026-05-05 16:54 | 19.77476 | 106.42292 | 28382 ft | 478 kts | 157° |
| 2026-05-05 16:54 | 19.74455 | 106.43787 | 28629 ft | 480 kts | 157° |
| 2026-05-05 16:54 | 19.71429 | 106.45285 | 28920 ft | 481 kts | 158° |
| 2026-05-05 16:54 | 19.68392 | 106.46786 | 29259 ft | 480 kts | 158° |
| 2026-05-05 16:55 | 19.65358 | 106.48287 | 29626 ft | 479 kts | 158° |
| 2026-05-05 16:55 | 19.62346 | 106.49780 | 29956 ft | 479 kts | 158° |
| 2026-05-05 16:55 | 19.59323 | 106.51281 | 30225 ft | 478 kts | 158° |
| 2026-05-05 16:55 | 19.56346 | 106.52760 | 30477 ft | 478 kts | 158° |
| 2026-05-05 16:56 | 19.53336 | 106.54251 | 30736 ft | 478 kts | 158° |
| 2026-05-05 16:56 | 19.50328 | 106.55741 | 30992 ft | 477 kts | 158° |
| 2026-05-05 16:56 | 19.47305 | 106.57241 | 31242 ft | 477 kts | 158° |
| 2026-05-05 16:56 | 19.44293 | 106.58731 | 31494 ft | 477 kts | 158° |
| 2026-05-05 16:57 | 19.41283 | 106.60218 | 31737 ft | 476 kts | 158° |
| 2026-05-05 16:57 | 19.38279 | 106.61701 | 31979 ft | 476 kts | 158° |
| 2026-05-05 16:57 | 19.35312 | 106.63165 | 32198 ft | 476 kts | 158° |
| 2026-05-05 16:57 | 19.32305 | 106.64647 | 32454 ft | 475 kts | 158° |
| 2026-05-05 16:58 | 19.29294 | 106.66127 | 32681 ft | 475 kts | 158° |
| 2026-05-05 16:58 | 19.26298 | 106.67607 | 32900 ft | 475 kts | 158° |
| 2026-05-05 16:58 | 19.23295 | 106.69085 | 33115 ft | 475 kts | 159° |
| 2026-05-05 16:58 | 19.20318 | 106.70495 | 33300 ft | 475 kts | 160° |
| 2026-05-05 16:59 | 19.17285 | 106.71916 | 33447 ft | 476 kts | 160° |
| 2026-05-05 16:59 | 19.14247 | 106.73345 | 33618 ft | 477 kts | 159° |
| 2026-05-05 16:59 | 19.11203 | 106.74777 | 33822 ft | 477 kts | 160° |
| 2026-05-05 16:59 | 19.08171 | 106.76200 | 33943 ft | 477 kts | 160° |
| 2026-05-05 17:00 | 19.02133 | 106.79021 | 33943 ft | 476 kts | 160° |
| 2026-05-05 17:00 | 18.96094 | 106.81846 | 33928 ft | 472 kts | 159° |
| 2026-05-05 17:01 | 18.90085 | 106.84663 | 33922 ft | 472 kts | 159° |
| 2026-05-05 17:01 | 18.84078 | 106.87464 | 33921 ft | 472 kts | 159° |
| 2026-05-05 17:02 | 18.78102 | 106.90246 | 33921 ft | 472 kts | 159° |
| 2026-05-05 17:02 | 18.72098 | 106.93054 | 33920 ft | 472 kts | 159° |
| 2026-05-05 17:03 | 18.66080 | 106.95847 | 33912 ft | 471 kts | 159° |
| 2026-05-05 17:03 | 18.60114 | 106.98624 | 33916 ft | 469 kts | 159° |
| 2026-05-05 17:04 | 18.54130 | 107.01410 | 33918 ft | 469 kts | 159° |
| 2026-05-05 17:04 | 18.48200 | 107.04162 | 33917 ft | 469 kts | 159° |
| 2026-05-05 17:05 | 18.42232 | 107.06934 | 33924 ft | 468 kts | 159° |
| 2026-05-05 17:05 | 18.36271 | 107.09711 | 33924 ft | 468 kts | 159° |
| 2026-05-05 17:06 | 18.30307 | 107.12473 | 33922 ft | 468 kts | 159° |
| 2026-05-05 17:06 | 18.24376 | 107.15222 | 33924 ft | 468 kts | 159° |
| 2026-05-05 17:07 | 18.18410 | 107.17996 | 33920 ft | 468 kts | 159° |
| 2026-05-05 17:07 | 18.12442 | 107.20762 | 33919 ft | 468 kts | 159° |
| 2026-05-05 17:08 | 18.06462 | 107.23525 | 33925 ft | 468 kts | 159° |
| 2026-05-05 17:08 | 18.00538 | 107.26336 | 33924 ft | 469 kts | 158° |
| 2026-05-05 17:09 | 17.94594 | 107.29169 | 33919 ft | 469 kts | 158° |
| 2026-05-05 17:09 | 17.88659 | 107.31986 | 33923 ft | 468 kts | 158° |
| 2026-05-05 17:10 | 17.82718 | 107.34812 | 33924 ft | 469 kts | 158° |
| 2026-05-05 17:10 | 17.76794 | 107.37622 | 33923 ft | 469 kts | 158° |
| 2026-05-05 17:11 | 17.70852 | 107.40432 | 33918 ft | 469 kts | 158° |
| 2026-05-05 17:11 | 17.64900 | 107.43247 | 33919 ft | 468 kts | 158° |
| 2026-05-05 17:12 | 17.59960 | 107.45593 | 33923 ft | 469 kts | 158° |
| 2026-05-05 17:12 | 17.53034 | 107.48864 | 33922 ft | 469 kts | 158° |
| 2026-05-05 17:13 | 17.48071 | 107.51209 | 33918 ft | 469 kts | 158° |
| 2026-05-05 17:13 | 17.42102 | 107.54027 | 33920 ft | 469 kts | 158° |
| 2026-05-05 17:14 | 17.36150 | 107.56830 | 33921 ft | 469 kts | 158° |
| 2026-05-05 17:14 | 17.30238 | 107.59615 | 33921 ft | 469 kts | 158° |
| 2026-05-05 17:15 | 17.24284 | 107.62427 | 33916 ft | 469 kts | 158° |
| 2026-05-05 17:15 | 17.18331 | 107.65231 | 33918 ft | 469 kts | 158° |
| 2026-05-05 17:16 | 17.12411 | 107.68014 | 33921 ft | 469 kts | 158° |
| 2026-05-05 17:16 | 17.06476 | 107.70886 | 33920 ft | 469 kts | 157° |
| 2026-05-05 17:17 | 17.00537 | 107.73781 | 33918 ft | 469 kts | 158° |
| 2026-05-05 17:17 | 16.94603 | 107.76663 | 33905 ft | 471 kts | 158° |
| 2026-05-05 17:18 | 16.88718 | 107.79522 | 33910 ft | 468 kts | 157° |
| 2026-05-05 17:18 | 16.82797 | 107.82385 | 33914 ft | 468 kts | 158° |
| 2026-05-05 17:19 | 16.76877 | 107.85252 | 33917 ft | 468 kts | 157° |
| 2026-05-05 17:19 | 16.70963 | 107.88114 | 33916 ft | 468 kts | 157° |
| 2026-05-05 17:20 | 16.65087 | 107.90958 | 33919 ft | 468 kts | 158° |
| 2026-05-05 17:20 | 16.59157 | 107.93824 | 33920 ft | 468 kts | 157° |
| 2026-05-05 17:21 | 16.53262 | 107.96685 | 33916 ft | 466 kts | 157° |
| 2026-05-05 17:22 | 16.44455 | 108.00930 | 33920 ft | 466 kts | 157° |
| 2026-05-05 17:22 | 16.38552 | 108.03773 | 33932 ft | 466 kts | 157° |
| 2026-05-05 17:23 | 16.32702 | 108.06589 | 33931 ft | 466 kts | 157° |
| 2026-05-05 17:23 | 16.26806 | 108.09433 | 33928 ft | 466 kts | 157° |
| 2026-05-05 17:24 | 16.20928 | 108.12263 | 33933 ft | 461 kts | 157° |
| 2026-05-05 17:24 | 16.15093 | 108.15067 | 33934 ft | 462 kts | 157° |
| 2026-05-05 17:25 | 16.09290 | 108.17858 | 33934 ft | 462 kts | 157° |
| 2026-05-05 17:25 | 16.03633 | 108.21051 | 33934 ft | 465 kts | 146° |
| 2026-05-05 17:26 | 15.98516 | 108.25108 | 33937 ft | 465 kts | 144° |
| 2026-05-05 17:26 | 15.93381 | 108.29209 | 33932 ft | 465 kts | 144° |
| 2026-05-05 17:27 | 15.88232 | 108.33286 | 33934 ft | 465 kts | 144° |
| 2026-05-05 17:27 | 15.83062 | 108.37377 | 33934 ft | 466 kts | 144° |
| 2026-05-05 17:28 | 15.77916 | 108.41448 | 33933 ft | 466 kts | 144° |
| 2026-05-05 17:28 | 15.72743 | 108.45537 | 33923 ft | 467 kts | 144° |
| 2026-05-05 17:29 | 15.67610 | 108.49606 | 33924 ft | 467 kts | 144° |
| 2026-05-05 17:29 | 15.62437 | 108.53688 | 33927 ft | 467 kts | 144° |
| 2026-05-05 17:30 | 15.57256 | 108.57773 | 33921 ft | 467 kts | 144° |
| 2026-05-05 17:30 | 15.52079 | 108.61860 | 33923 ft | 467 kts | 144° |
| 2026-05-05 17:31 | 15.46905 | 108.65933 | 33920 ft | 467 kts | 144° |
| 2026-05-05 17:31 | 15.41632 | 108.69774 | 33917 ft | 465 kts | 154° |
| 2026-05-05 17:31 | 15.38671 | 108.71052 | 33596 ft | 460 kts | 165° |
| 2026-05-05 17:32 | 15.35553 | 108.71849 | 33303 ft | 461 kts | 169° |
| 2026-05-05 17:32 | 15.32411 | 108.72547 | 32975 ft | 462 kts | 169° |
| 2026-05-05 17:32 | 15.29271 | 108.73248 | 32402 ft | 459 kts | 169° |
| 2026-05-05 17:32 | 15.26150 | 108.73964 | 31690 ft | 459 kts | 168° |
| 2026-05-05 17:33 | 15.23036 | 108.74690 | 30992 ft | 458 kts | 168° |
| 2026-05-05 17:33 | 15.19958 | 108.75409 | 30362 ft | 457 kts | 168° |
| 2026-05-05 17:33 | 15.16857 | 108.76131 | 29684 ft | 456 kts | 168° |
| 2026-05-05 17:33 | 15.13761 | 108.76857 | 28967 ft | 455 kts | 168° |
| 2026-05-05 17:34 | 15.10680 | 108.77579 | 28310 ft | 452 kts | 168° |
| 2026-05-05 17:34 | 15.07609 | 108.78298 | 27685 ft | 449 kts | 168° |
| 2026-05-05 17:34 | 15.04557 | 108.79010 | 27053 ft | 446 kts | 168° |
| 2026-05-05 17:34 | 15.01532 | 108.79714 | 26411 ft | 444 kts | 168° |
| 2026-05-05 17:35 | 14.98559 | 108.80410 | 25789 ft | 442 kts | 168° |
| 2026-05-05 17:35 | 14.95566 | 108.81109 | 25192 ft | 439 kts | 168° |
| 2026-05-05 17:35 | 14.92589 | 108.81801 | 24585 ft | 436 kts | 168° |
| 2026-05-05 17:35 | 14.89638 | 108.82488 | 23968 ft | 432 kts | 168° |
| 2026-05-05 17:36 | 14.86709 | 108.83171 | 23317 ft | 429 kts | 168° |
| 2026-05-05 17:36 | 14.83815 | 108.83846 | 22655 ft | 424 kts | 168° |
| 2026-05-05 17:36 | 14.80938 | 108.84515 | 21996 ft | 419 kts | 168° |
| 2026-05-05 17:36 | 14.78106 | 108.85172 | 21356 ft | 415 kts | 168° |
| 2026-05-05 17:37 | 14.75305 | 108.85821 | 20757 ft | 410 kts | 168° |
| 2026-05-05 17:37 | 14.73469 | 108.86247 | 20377 ft | 406 kts | 168° |
| 2026-05-05 17:37 | 14.69840 | 108.87090 | 19661 ft | 399 kts | 168° |
| 2026-05-05 17:37 | 14.67144 | 108.87717 | 19156 ft | 394 kts | 168° |
| 2026-05-05 17:38 | 14.64476 | 108.88333 | 18664 ft | 389 kts | 168° |
| 2026-05-05 17:38 | 14.61852 | 108.88941 | 18174 ft | 384 kts | 168° |
| 2026-05-05 17:38 | 14.59259 | 108.89543 | 17651 ft | 378 kts | 168° |
| 2026-05-05 17:38 | 14.56734 | 108.90131 | 17152 ft | 373 kts | 168° |
| 2026-05-05 17:39 | 14.54210 | 108.90716 | 16662 ft | 369 kts | 168° |
| 2026-05-05 17:39 | 14.51702 | 108.91298 | 16197 ft | 369 kts | 168° |
| 2026-05-05 17:39 | 14.49191 | 108.91880 | 15746 ft | 369 kts | 168° |
| 2026-05-05 17:39 | 14.46708 | 108.92454 | 15307 ft | 368 kts | 167° |
| 2026-05-05 17:40 | 14.44210 | 108.93038 | 14858 ft | 368 kts | 167° |
| 2026-05-05 17:40 | 14.41707 | 108.93620 | 14398 ft | 369 kts | 167° |
| 2026-05-05 17:40 | 14.39196 | 108.94205 | 13941 ft | 369 kts | 167° |
| 2026-05-05 17:40 | 14.36720 | 108.94778 | 13455 ft | 369 kts | 167° |
| 2026-05-05 17:41 | 14.34207 | 108.95361 | 12942 ft | 369 kts | 167° |
| 2026-05-05 17:41 | 14.31714 | 108.95937 | 12475 ft | 363 kts | 167° |
| 2026-05-05 17:41 | 14.29272 | 108.96504 | 12009 ft | 357 kts | 167° |
| 2026-05-05 17:41 | 14.26868 | 108.97060 | 11546 ft | 351 kts | 167° |
| 2026-05-05 17:42 | 14.24505 | 108.97605 | 11095 ft | 346 kts | 167° |
| 2026-05-05 17:42 | 14.22203 | 108.98226 | 10743 ft | 337 kts | 159° |
| 2026-05-05 17:42 | 14.20165 | 108.99329 | 10519 ft | 324 kts | 148° |
| 2026-05-05 17:42 | 14.18306 | 109.00521 | 10359 ft | 311 kts | 148° |
| 2026-05-05 17:43 | 14.16506 | 109.01680 | 10162 ft | 300 kts | 148° |
| 2026-05-05 17:43 | 14.14737 | 109.02814 | 9737 ft | 299 kts | 148° |
| 2026-05-05 17:43 | 14.12973 | 109.03939 | 9300 ft | 296 kts | 148° |
| 2026-05-05 17:43 | 14.11222 | 109.05046 | 8897 ft | 293 kts | 148° |
| 2026-05-05 17:44 | 14.09512 | 109.06129 | 8516 ft | 289 kts | 148° |
| 2026-05-05 17:44 | 14.07798 | 109.07209 | 8148 ft | 288 kts | 148° |
| 2026-05-05 17:44 | 14.06084 | 109.08290 | 7795 ft | 289 kts | 147° |
| 2026-05-05 17:44 | 14.04372 | 109.09371 | 7458 ft | 288 kts | 147° |
| 2026-05-05 17:45 | 14.02685 | 109.10441 | 7106 ft | 286 kts | 147° |
| 2026-05-05 17:45 | 14.01007 | 109.11498 | 6862 ft | 278 kts | 147° |
| 2026-05-05 17:45 | 13.99380 | 109.12525 | 6702 ft | 267 kts | 147° |
| 2026-05-05 17:45 | 13.97828 | 109.13502 | 6572 ft | 255 kts | 147° |
| 2026-05-05 17:46 | 13.96340 | 109.14442 | 6360 ft | 248 kts | 147° |
| 2026-05-05 17:46 | 13.94876 | 109.15368 | 6021 ft | 246 kts | 146° |
| 2026-05-05 17:46 | 13.93417 | 109.16292 | 5657 ft | 245 kts | 146° |
| 2026-05-05 17:46 | 13.91972 | 109.17203 | 5301 ft | 243 kts | 146° |
| 2026-05-05 17:47 | 13.90533 | 109.18111 | 4921 ft | 242 kts | 146° |
| 2026-05-05 17:47 | 13.89118 | 109.19006 | 4531 ft | 241 kts | 146° |
| 2026-05-05 17:47 | 13.87690 | 109.19908 | 4148 ft | 240 kts | 146° |
| 2026-05-05 17:47 | 13.86259 | 109.20802 | 3997 ft | 240 kts | 149° |
| 2026-05-05 17:48 | 13.84677 | 109.21332 | 3969 ft | 244 kts | 178° |
| 2026-05-05 17:48 | 13.83059 | 109.20879 | 3938 ft | 241 kts | 213° |
| 2026-05-05 17:48 | 13.81959 | 109.19654 | 3754 ft | 229 kts | 237° |
| 2026-05-05 17:48 | 13.81146 | 109.18264 | 3443 ft | 225 kts | 239° |
| 2026-05-05 17:49 | 13.80391 | 109.16862 | 3071 ft | 223 kts | 250° |
| 2026-05-05 17:49 | 13.80215 | 109.15308 | 2673 ft | 218 kts | 284° |
| 2026-05-05 17:49 | 13.80895 | 109.13968 | 2283 ft | 211 kts | 318° |
| 2026-05-05 17:49 | 13.82046 | 109.13087 | 2035 ft | 207 kts | 331° |
| 2026-05-05 17:50 | 13.83299 | 109.12358 | 1989 ft | 206 kts | 332° |
| 2026-05-05 17:50 | 13.84546 | 109.11612 | 1989 ft | 208 kts | 329° |
| 2026-05-05 17:50 | 13.85754 | 109.10810 | 1981 ft | 208 kts | 327° |
| 2026-05-05 17:50 | 13.86908 | 109.10032 | 1859 ft | 191 kts | 327° |
| 2026-05-05 17:51 | 13.87979 | 109.09309 | 1643 ft | 177 kts | 327° |
| 2026-05-05 17:51 | 13.88969 | 109.08640 | 1412 ft | 160 kts | 327° |
| 2026-05-05 17:51 | 13.89836 | 109.08054 | 1168 ft | 143 kts | 326° |
| 2026-05-05 17:51 | 13.90666 | 109.07492 | 965 ft | 142 kts | 326° |
| 2026-05-05 17:52 | 13.91493 | 109.06933 | 780 ft | 142 kts | 326° |
| 2026-05-05 17:52 | 13.92318 | 109.06375 | 591 ft | 141 kts | 326° |
| 2026-05-05 17:52 | 13.93127 | 109.05829 | 403 ft | 141 kts | 326° |
| 2026-05-05 17:52 | 13.93943 | 109.05272 | 224 ft | 140 kts | 327° |
| 2026-05-05 17:53 | 13.94758 | 109.04728 | 100 ft | 133 kts | 326° |
| 2026-05-05 17:53 | 13.95369 | 109.04317 | 96 ft | 76 kts | 327° |
| 2026-05-05 17:53 | 13.95745 | 109.04062 | 99 ft | 54 kts | 327° |
| 2026-05-05 17:53 | 13.96000 | 109.03893 | 99 ft | 27 kts | 329° |
| 2026-05-05 17:54 | 13.96090 | 109.03878 | 95 ft | 12 kts | 53° |
| 2026-05-05 17:54 | 13.96139 | 109.03954 | 99 ft | 14 kts | 56° |
| 2026-05-05 17:54 | 13.96169 | 109.04043 | 95 ft | 15 kts | 133° |
| 2026-05-05 17:54 | 13.96076 | 109.04107 | 96 ft | 17 kts | 146° |
| 2026-05-05 17:55 | 13.95975 | 109.04174 | 97 ft | 18 kts | 147° |
| 2026-05-05 17:55 | 13.95865 | 109.04249 | 95 ft | 20 kts | 147° |
| 2026-05-05 17:55 | 13.95746 | 109.04328 | 99 ft | 21 kts | 147° |
| 2026-05-05 17:55 | 13.95620 | 109.04414 | 98 ft | 22 kts | 147° |
| 2026-05-05 17:56 | 13.95485 | 109.04504 | 92 ft | 24 kts | 147° |
| 2026-05-05 17:56 | 13.95457 | 109.04586 | 94 ft | 12 kts | 95° |
| 2026-05-05 17:56 | 13.95421 | 109.04653 | 96 ft | 11 kts | 53° |
| 2026-05-05 17:56 | 13.95445 | 109.04684 | 94 ft | 1 kts | 53° |
| 2026-05-05 17:57 | 13.95299 | 109.04787 | 101 ft | 0 kts | 57° |